sensor_id;sensor_type;location;lat;lon;timestamp;pressure;altitude;pressure_sealevel;temperature;humidity
56070;BME280;41944;52.078;-0.058;2024-01-15T00:01:37;100715.21;;;3.50;82.30
56070;BME280;41944;52.078;-0.058;2024-01-15T00:04:04;100722.69;;;3.39;82.49
56070;BME280;41944;52.078;-0.058;2024-01-15T00:06:31;100713.93;;;3.53;83.45
56070;BME280;41944;52.078;-0.058;2024-01-15T00:08:58;100718.28;;;3.36;83.01
56070;BME280;41944;52.078;-0.058;2024-01-15T00:11:25;100710.70;;;3.42;82.26
56070;BME280;41944;52.078;-0.058;2024-01-15T00:13:52;100711.10;;;3.29;81.98
56070;BME280;41944;52.078;-0.058;2024-01-15T00:16:19;100708.22;;;3.12;82.20
56070;BME280;41944;52.078;-0.058;2024-01-15T00:18:45;100707.91;;;3.36;82.97
56070;BME280;41944;52.078;-0.058;2024-01-15T00:21:13;100705.73;;;3.25;82.15
56070;BME280;41944;52.078;-0.058;2024-01-15T00:23:42;100703.18;;;3.30;80.83
56070;BME280;41944;52.078;-0.058;2024-01-15T00:26:11;100701.08;;;3.00;81.26
56070;BME280;41944;52.078;-0.058;2024-01-15T00:28:38;100702.07;;;2.80;82.14
56070;BME280;41944;52.078;-0.058;2024-01-15T00:31:06;100701.40;;;2.74;83.40
56070;BME280;41944;52.078;-0.058;2024-01-15T00:33:33;100694.70;;;2.66;83.31
56070;BME280;41944;52.078;-0.058;2024-01-15T00:36:00;100692.83;;;2.56;83.60
56070;BME280;41944;52.078;-0.058;2024-01-15T00:38:27;100692.04;;;2.13;85.32
56070;BME280;41944;52.078;-0.058;2024-01-15T00:40:54;100685.59;;;1.97;86.28
56070;BME280;41944;52.078;-0.058;2024-01-15T00:43:21;100682.10;;;1.81;87.34
56070;BME280;41944;52.078;-0.058;2024-01-15T00:45:49;100683.45;;;1.60;88.55
56070;BME280;41944;52.078;-0.058;2024-01-15T00:48:16;100681.36;;;1.51;89.15
56070;BME280;41944;52.078;-0.058;2024-01-15T00:50:42;100674.16;;;1.61;89.05
56070;BME280;41944;52.078;-0.058;2024-01-15T00:53:10;100665.20;;;1.46;89.90
56070;BME280;41944;52.078;-0.058;2024-01-15T00:55:37;100664.45;;;1.48;90.15
56070;BME280;41944;52.078;-0.058;2024-01-15T00:58:05;100663.55;;;1.60;90.00
56070;BME280;41944;52.078;-0.058;2024-01-15T01:00:31;100660.45;;;1.62;89.97
56070;BME280;41944;52.078;-0.058;2024-01-15T01:02:58;100654.26;;;1.72;89.67
56070;BME280;41944;52.078;-0.058;2024-01-15T01:05:25;100654.60;;;1.59;89.96
56070;BME280;41944;52.078;-0.058;2024-01-15T01:07:52;100650.39;;;1.59;89.62
56070;BME280;41944;52.078;-0.058;2024-01-15T01:10:19;100646.33;;;1.42;90.59
56070;BME280;41944;52.078;-0.058;2024-01-15T01:12:46;100646.56;;;1.45;90.89
56070;BME280;41944;52.078;-0.058;2024-01-15T01:15:13;100644.75;;;1.58;90.26
56070;BME280;41944;52.078;-0.058;2024-01-15T01:17:40;100647.09;;;1.47;89.86
56070;BME280;41944;52.078;-0.058;2024-01-15T01:20:08;100647.71;;;1.48;90.02
56070;BME280;41944;52.078;-0.058;2024-01-15T01:22:35;100647.12;;;1.54;90.01
56070;BME280;41944;52.078;-0.058;2024-01-15T01:25:02;100643.06;;;1.36;90.07
56070;BME280;41944;52.078;-0.058;2024-01-15T01:27:30;100641.09;;;1.33;90.84
56070;BME280;41944;52.078;-0.058;2024-01-15T01:29:57;100641.96;;;1.29;90.81
56070;BME280;41944;52.078;-0.058;2024-01-15T01:32:24;100642.36;;;1.32;90.45
56070;BME280;41944;52.078;-0.058;2024-01-15T01:34:51;100641.89;;;1.38;90.75
56070;BME280;41944;52.078;-0.058;2024-01-15T01:37:18;100644.27;;;1.45;90.13
56070;BME280;41944;52.078;-0.058;2024-01-15T01:39:45;100645.36;;;1.45;90.02
56070;BME280;41944;52.078;-0.058;2024-01-15T01:42:13;100641.91;;;1.53;90.06
56070;BME280;41944;52.078;-0.058;2024-01-15T01:44:40;100638.05;;;1.68;90.09
56070;BME280;41944;52.078;-0.058;2024-01-15T01:47:07;100644.85;;;1.89;89.30
56070;BME280;41944;52.078;-0.058;2024-01-15T01:49:35;100646.97;;;1.84;89.26
56070;BME280;41944;52.078;-0.058;2024-01-15T01:52:05;100647.75;;;1.74;88.92
56070;BME280;41944;52.078;-0.058;2024-01-15T01:54:33;100646.14;;;1.77;88.94
56070;BME280;41944;52.078;-0.058;2024-01-15T01:57:03;100650.64;;;1.69;88.58
56070;BME280;41944;52.078;-0.058;2024-01-15T01:59:31;100646.88;;;1.81;89.33
56070;BME280;41944;52.078;-0.058;2024-01-15T02:02:00;100645.02;;;1.81;89.09
56070;BME280;41944;52.078;-0.058;2024-01-15T02:04:30;100639.40;;;1.71;88.36
56070;BME280;41944;52.078;-0.058;2024-01-15T02:06:59;100644.79;;;1.85;87.88
56070;BME280;41944;52.078;-0.058;2024-01-15T02:09:25;100644.69;;;1.78;87.83
56070;BME280;41944;52.078;-0.058;2024-01-15T02:11:52;100641.59;;;1.56;87.79
56070;BME280;41944;52.078;-0.058;2024-01-15T02:14:19;100644.39;;;1.53;87.57
56070;BME280;41944;52.078;-0.058;2024-01-15T02:16:46;100639.20;;;1.61;87.65
56070;BME280;41944;52.078;-0.058;2024-01-15T02:19:15;100638.03;;;1.62;87.83
56070;BME280;41944;52.078;-0.058;2024-01-15T02:21:42;100637.18;;;1.66;87.46
56070;BME280;41944;52.078;-0.058;2024-01-15T02:24:09;100640.21;;;1.73;87.81
56070;BME280;41944;52.078;-0.058;2024-01-15T02:26:36;100636.60;;;1.53;87.33
56070;BME280;41944;52.078;-0.058;2024-01-15T02:29:05;100634.34;;;1.50;87.45
56070;BME280;41944;52.078;-0.058;2024-01-15T02:31:33;100636.16;;;1.50;87.25
56070;BME280;41944;52.078;-0.058;2024-01-15T02:34:00;100635.99;;;1.50;88.05
56070;BME280;41944;52.078;-0.058;2024-01-15T02:36:27;100637.69;;;1.31;87.85
56070;BME280;41944;52.078;-0.058;2024-01-15T02:38:54;100638.58;;;1.25;88.65
56070;BME280;41944;52.078;-0.058;2024-01-15T02:41:21;100641.14;;;1.23;88.70
56070;BME280;41944;52.078;-0.058;2024-01-15T02:43:48;100641.34;;;1.15;88.93
56070;BME280;41944;52.078;-0.058;2024-01-15T02:46:15;100638.79;;;1.04;89.28
56070;BME280;41944;52.078;-0.058;2024-01-15T02:48:42;100636.03;;;1.37;88.33
56070;BME280;41944;52.078;-0.058;2024-01-15T02:51:09;100637.63;;;1.29;88.45
56070;BME280;41944;52.078;-0.058;2024-01-15T02:53:36;100639.13;;;1.11;88.47
56070;BME280;41944;52.078;-0.058;2024-01-15T02:56:03;100637.96;;;0.91;89.32
56070;BME280;41944;52.078;-0.058;2024-01-15T02:58:31;100638.93;;;0.95;89.25
56070;BME280;41944;52.078;-0.058;2024-01-15T03:00:58;100637.51;;;0.95;89.80
56070;BME280;41944;52.078;-0.058;2024-01-15T03:03:25;100632.70;;;0.95;89.12
56070;BME280;41944;52.078;-0.058;2024-01-15T03:05:52;100626.35;;;0.95;89.63
56070;BME280;41944;52.078;-0.058;2024-01-15T03:08:19;100626.14;;;0.72;90.16
56070;BME280;41944;52.078;-0.058;2024-01-15T03:10:46;100625.77;;;0.74;90.34
56070;BME280;41944;52.078;-0.058;2024-01-15T03:13:13;100620.42;;;0.96;89.63
56070;BME280;41944;52.078;-0.058;2024-01-15T03:15:40;100622.61;;;0.74;89.85
56070;BME280;41944;52.078;-0.058;2024-01-15T03:18:07;100622.72;;;0.70;89.72
56070;BME280;41944;52.078;-0.058;2024-01-15T03:20:34;100623.31;;;0.78;89.76
56070;BME280;41944;52.078;-0.058;2024-01-15T03:23:01;100619.11;;;0.86;89.21
56070;BME280;41944;52.078;-0.058;2024-01-15T03:25:28;100618.10;;;0.89;89.70
56070;BME280;41944;52.078;-0.058;2024-01-15T03:27:55;100617.26;;;0.85;89.36
56070;BME280;41944;52.078;-0.058;2024-01-15T03:30:22;100618.80;;;0.71;89.48
56070;BME280;41944;52.078;-0.058;2024-01-15T03:32:49;100615.91;;;0.93;89.19
56070;BME280;41944;52.078;-0.058;2024-01-15T03:35:16;100616.09;;;0.89;88.95
56070;BME280;41944;52.078;-0.058;2024-01-15T03:37:43;100618.47;;;0.95;88.21
56070;BME280;41944;52.078;-0.058;2024-01-15T03:40:11;100626.36;;;0.83;88.01
56070;BME280;41944;52.078;-0.058;2024-01-15T03:42:38;100625.69;;;0.58;88.06
56070;BME280;41944;52.078;-0.058;2024-01-15T03:45:05;100630.62;;;0.72;88.58
56070;BME280;41944;52.078;-0.058;2024-01-15T03:47:33;100634.09;;;0.81;88.76
56070;BME280;41944;52.078;-0.058;2024-01-15T03:50:00;100635.14;;;0.75;87.76
56070;BME280;41944;52.078;-0.058;2024-01-15T03:52:27;100633.43;;;0.60;87.79
56070;BME280;41944;52.078;-0.058;2024-01-15T03:54:54;100633.51;;;0.55;88.55
56070;BME280;41944;52.078;-0.058;2024-01-15T03:57:21;100632.57;;;0.52;88.09
56070;BME280;41944;52.078;-0.058;2024-01-15T03:59:48;100627.90;;;0.37;88.59
56070;BME280;41944;52.078;-0.058;2024-01-15T04:02:15;100627.06;;;0.54;88.23
56070;BME280;41944;52.078;-0.058;2024-01-15T04:04:42;100629.48;;;0.41;88.07
56070;BME280;41944;52.078;-0.058;2024-01-15T04:07:09;100631.07;;;0.46;88.16
56070;BME280;41944;52.078;-0.058;2024-01-15T04:09:36;100628.72;;;0.37;88.37
56070;BME280;41944;52.078;-0.058;2024-01-15T04:12:04;100626.10;;;0.51;88.49
56070;BME280;41944;52.078;-0.058;2024-01-15T04:14:31;100625.90;;;0.60;88.10
56070;BME280;41944;52.078;-0.058;2024-01-15T04:16:58;100624.68;;;0.66;88.37
56070;BME280;41944;52.078;-0.058;2024-01-15T04:19:25;100624.77;;;0.62;88.00
56070;BME280;41944;52.078;-0.058;2024-01-15T04:21:52;100625.20;;;0.54;87.23
56070;BME280;41944;52.078;-0.058;2024-01-15T04:24:19;100629.26;;;0.43;88.22
56070;BME280;41944;52.078;-0.058;2024-01-15T04:26:46;100628.34;;;0.24;88.63
56070;BME280;41944;52.078;-0.058;2024-01-15T04:29:13;100625.06;;;0.42;88.46
56070;BME280;41944;52.078;-0.058;2024-01-15T04:31:40;100624.00;;;0.40;88.23
56070;BME280;41944;52.078;-0.058;2024-01-15T04:34:07;100614.27;;;0.54;87.95
56070;BME280;41944;52.078;-0.058;2024-01-15T04:36:38;100608.20;;;0.51;87.84
56070;BME280;41944;52.078;-0.058;2024-01-15T04:39:05;100617.05;;;0.44;87.66
56070;BME280;41944;52.078;-0.058;2024-01-15T04:41:33;100621.36;;;0.47;87.20
56070;BME280;41944;52.078;-0.058;2024-01-15T04:43:59;100624.68;;;0.31;87.87
56070;BME280;41944;52.078;-0.058;2024-01-15T04:46:26;100626.60;;;0.45;88.07
56070;BME280;41944;52.078;-0.058;2024-01-15T04:48:54;100626.51;;;0.50;88.29
56070;BME280;41944;52.078;-0.058;2024-01-15T04:51:21;100624.95;;;0.40;88.22
56070;BME280;41944;52.078;-0.058;2024-01-15T04:53:47;100624.34;;;0.24;88.77
56070;BME280;41944;52.078;-0.058;2024-01-15T04:56:15;100626.37;;;0.38;88.50
56070;BME280;41944;52.078;-0.058;2024-01-15T04:58:42;100624.33;;;0.28;88.83
56070;BME280;41944;52.078;-0.058;2024-01-15T05:01:09;100624.67;;;0.43;89.74
56070;BME280;41944;52.078;-0.058;2024-01-15T05:03:36;100624.00;;;0.49;88.73
56070;BME280;41944;52.078;-0.058;2024-01-15T05:06:03;100624.56;;;0.63;88.84
56070;BME280;41944;52.078;-0.058;2024-01-15T05:08:30;100620.64;;;0.68;88.52
56070;BME280;41944;52.078;-0.058;2024-01-15T05:10:57;100619.57;;;0.85;89.15
56070;BME280;41944;52.078;-0.058;2024-01-15T05:13:24;100619.09;;;0.52;88.55
56070;BME280;41944;52.078;-0.058;2024-01-15T05:15:51;100621.56;;;0.60;87.80
56070;BME280;41944;52.078;-0.058;2024-01-15T05:18:18;100624.13;;;0.37;88.47
56070;BME280;41944;52.078;-0.058;2024-01-15T05:20:45;100624.48;;;0.24;89.09
56070;BME280;41944;52.078;-0.058;2024-01-15T05:23:13;100626.75;;;0.32;89.10
56070;BME280;41944;52.078;-0.058;2024-01-15T05:25:39;100619.76;;;0.21;89.26
56070;BME280;41944;52.078;-0.058;2024-01-15T05:28:06;100618.17;;;0.22;89.64
56070;BME280;41944;52.078;-0.058;2024-01-15T05:30:33;100619.28;;;0.13;90.13
56070;BME280;41944;52.078;-0.058;2024-01-15T05:33:00;100622.61;;;0.02;90.77
56070;BME280;41944;52.078;-0.058;2024-01-15T05:35:27;100621.25;;;-0.06;91.03
56070;BME280;41944;52.078;-0.058;2024-01-15T05:37:54;100620.43;;;0.18;90.23
56070;BME280;41944;52.078;-0.058;2024-01-15T05:40:21;100626.53;;;0.05;90.92
56070;BME280;41944;52.078;-0.058;2024-01-15T05:42:48;100623.23;;;-0.09;91.51
56070;BME280;41944;52.078;-0.058;2024-01-15T05:45:15;100616.79;;;-0.27;92.00
56070;BME280;41944;52.078;-0.058;2024-01-15T05:47:42;100617.37;;;-0.10;91.79
56070;BME280;41944;52.078;-0.058;2024-01-15T05:50:09;100615.69;;;-0.24;92.22
56070;BME280;41944;52.078;-0.058;2024-01-15T05:52:37;100623.81;;;-0.00;91.74
56070;BME280;41944;52.078;-0.058;2024-01-15T05:55:05;100621.02;;;-0.19;91.84
56070;BME280;41944;52.078;-0.058;2024-01-15T05:57:32;100616.77;;;-0.20;91.84
56070;BME280;41944;52.078;-0.058;2024-01-15T06:00:00;100618.38;;;-0.22;92.17
56070;BME280;41944;52.078;-0.058;2024-01-15T06:02:27;100617.10;;;-0.16;91.78
56070;BME280;41944;52.078;-0.058;2024-01-15T06:04:54;100618.56;;;-0.27;92.08
56070;BME280;41944;52.078;-0.058;2024-01-15T06:07:22;100616.73;;;-0.19;92.35
56070;BME280;41944;52.078;-0.058;2024-01-15T06:09:49;100618.14;;;-0.05;92.00
56070;BME280;41944;52.078;-0.058;2024-01-15T06:12:16;100615.77;;;-0.03;91.76
56070;BME280;41944;52.078;-0.058;2024-01-15T06:14:43;100619.26;;;0.08;91.96
56070;BME280;41944;52.078;-0.058;2024-01-15T06:17:10;100617.15;;;-0.02;91.30
56070;BME280;41944;52.078;-0.058;2024-01-15T06:19:37;100615.88;;;0.01;90.96
56070;BME280;41944;52.078;-0.058;2024-01-15T06:22:04;100614.80;;;0.07;90.73
56070;BME280;41944;52.078;-0.058;2024-01-15T06:24:31;100613.96;;;-0.02;90.76
56070;BME280;41944;52.078;-0.058;2024-01-15T06:26:58;100617.07;;;-0.09;90.98
56070;BME280;41944;52.078;-0.058;2024-01-15T06:29:25;100622.99;;;-0.08;91.37
56070;BME280;41944;52.078;-0.058;2024-01-15T06:31:52;100625.80;;;-0.08;90.69
56070;BME280;41944;52.078;-0.058;2024-01-15T06:34:19;100615.41;;;0.07;90.68
56070;BME280;41944;52.078;-0.058;2024-01-15T06:36:46;100620.16;;;-0.03;90.26
56070;BME280;41944;52.078;-0.058;2024-01-15T06:39:13;100621.10;;;-0.02;90.43
56070;BME280;41944;52.078;-0.058;2024-01-15T06:41:41;100617.95;;;-0.16;90.70
56070;BME280;41944;52.078;-0.058;2024-01-15T06:44:08;100620.56;;;-0.08;90.50
56070;BME280;41944;52.078;-0.058;2024-01-15T06:46:35;100620.02;;;0.06;89.50
56070;BME280;41944;52.078;-0.058;2024-01-15T06:49:02;100625.12;;;0.03;89.16
56070;BME280;41944;52.078;-0.058;2024-01-15T06:51:29;100631.92;;;-0.08;89.59
56070;BME280;41944;52.078;-0.058;2024-01-15T06:53:56;100637.28;;;-0.09;89.58
56070;BME280;41944;52.078;-0.058;2024-01-15T06:56:23;100638.25;;;0.10;89.36
56070;BME280;41944;52.078;-0.058;2024-01-15T06:58:50;100632.45;;;0.08;88.81
56070;BME280;41944;52.078;-0.058;2024-01-15T07:01:17;100627.83;;;0.15;88.54
56070;BME280;41944;52.078;-0.058;2024-01-15T07:03:44;100623.25;;;0.28;87.70
56070;BME280;41944;52.078;-0.058;2024-01-15T07:06:12;100620.20;;;0.31;87.93
56070;BME280;41944;52.078;-0.058;2024-01-15T07:08:39;100626.67;;;0.16;87.53
56070;BME280;41944;52.078;-0.058;2024-01-15T07:11:07;100631.38;;;-0.09;87.49
56070;BME280;41944;52.078;-0.058;2024-01-15T07:13:36;100635.24;;;-0.01;87.60
56070;BME280;41944;52.078;-0.058;2024-01-15T07:16:03;100630.96;;;0.15;87.21
56070;BME280;41944;52.078;-0.058;2024-01-15T07:18:31;100627.21;;;0.18;86.74
56070;BME280;41944;52.078;-0.058;2024-01-15T07:20:57;100627.09;;;0.16;86.57
56070;BME280;41944;52.078;-0.058;2024-01-15T07:23:24;100630.71;;;0.11;86.69
56070;BME280;41944;52.078;-0.058;2024-01-15T07:25:51;100629.45;;;0.23;86.15
56070;BME280;41944;52.078;-0.058;2024-01-15T07:28:18;100633.69;;;0.28;86.46
56070;BME280;41944;52.078;-0.058;2024-01-15T07:30:45;100635.10;;;0.20;85.90
56070;BME280;41944;52.078;-0.058;2024-01-15T07:33:13;100638.24;;;0.06;85.99
56070;BME280;41944;52.078;-0.058;2024-01-15T07:35:39;100636.48;;;-0.03;86.30
56070;BME280;41944;52.078;-0.058;2024-01-15T07:38:06;100647.40;;;-0.05;86.51
56070;BME280;41944;52.078;-0.058;2024-01-15T07:40:33;100644.29;;;-0.21;86.90
56070;BME280;41944;52.078;-0.058;2024-01-15T07:43:00;100649.17;;;-0.11;86.78
56070;BME280;41944;52.078;-0.058;2024-01-15T07:45:27;100652.00;;;-0.10;86.86
56070;BME280;41944;52.078;-0.058;2024-01-15T07:47:54;100650.57;;;0.08;86.70
56070;BME280;41944;52.078;-0.058;2024-01-15T07:50:21;100655.83;;;0.05;86.32
56070;BME280;41944;52.078;-0.058;2024-01-15T07:52:48;100649.97;;;-0.02;86.41
56070;BME280;41944;52.078;-0.058;2024-01-15T07:55:15;100648.72;;;0.08;86.01
56070;BME280;41944;52.078;-0.058;2024-01-15T07:57:42;100649.05;;;0.06;85.71
56070;BME280;41944;52.078;-0.058;2024-01-15T08:00:10;100655.74;;;0.14;84.92
56070;BME280;41944;52.078;-0.058;2024-01-15T08:02:37;100657.59;;;0.16;84.31
56070;BME280;41944;52.078;-0.058;2024-01-15T08:05:04;100657.61;;;0.15;84.08
56070;BME280;41944;52.078;-0.058;2024-01-15T08:07:31;100654.54;;;0.01;84.63
56070;BME280;41944;52.078;-0.058;2024-01-15T08:09:58;100656.81;;;0.05;84.60
56070;BME280;41944;52.078;-0.058;2024-01-15T08:12:25;100655.34;;;-0.03;84.44
56070;BME280;41944;52.078;-0.058;2024-01-15T08:14:52;100661.15;;;-0.04;84.57
56070;BME280;41944;52.078;-0.058;2024-01-15T08:17:19;100662.27;;;0.03;84.42
56070;BME280;41944;52.078;-0.058;2024-01-15T08:19:46;100659.01;;;0.10;83.54
56070;BME280;41944;52.078;-0.058;2024-01-15T08:22:13;100657.20;;;0.20;82.95
56070;BME280;41944;52.078;-0.058;2024-01-15T08:24:40;100659.73;;;0.13;82.95
56070;BME280;41944;52.078;-0.058;2024-01-15T08:27:07;100668.83;;;0.24;82.71
56070;BME280;41944;52.078;-0.058;2024-01-15T08:29:34;100670.57;;;0.34;82.46
56070;BME280;41944;52.078;-0.058;2024-01-15T08:32:01;100679.75;;;0.23;82.08
56070;BME280;41944;52.078;-0.058;2024-01-15T08:34:28;100684.91;;;0.15;82.83
56070;BME280;41944;52.078;-0.058;2024-01-15T08:36:55;100695.18;;;0.44;82.03
56070;BME280;41944;52.078;-0.058;2024-01-15T08:39:22;100698.98;;;0.47;81.12
56070;BME280;41944;52.078;-0.058;2024-01-15T08:41:49;100693.73;;;0.41;81.76
56070;BME280;41944;52.078;-0.058;2024-01-15T08:44:16;100695.74;;;0.29;82.54
56070;BME280;41944;52.078;-0.058;2024-01-15T08:46:44;100694.78;;;0.62;81.63
56070;BME280;41944;52.078;-0.058;2024-01-15T08:49:11;100692.66;;;0.49;81.40
56070;BME280;41944;52.078;-0.058;2024-01-15T08:51:38;100693.15;;;0.44;81.87
56070;BME280;41944;52.078;-0.058;2024-01-15T08:54:05;100694.50;;;0.83;79.38
56070;BME280;41944;52.078;-0.058;2024-01-15T08:56:32;100692.72;;;0.79;78.73
56070;BME280;41944;52.078;-0.058;2024-01-15T08:58:59;100694.96;;;0.65;79.68
56070;BME280;41944;52.078;-0.058;2024-01-15T09:01:26;100695.32;;;0.69;79.84
56070;BME280;41944;52.078;-0.058;2024-01-15T09:03:53;100705.52;;;0.65;80.12
56070;BME280;41944;52.078;-0.058;2024-01-15T09:06:20;100709.40;;;0.65;80.26
56070;BME280;41944;52.078;-0.058;2024-01-15T09:08:47;100711.84;;;0.89;79.47
56070;BME280;41944;52.078;-0.058;2024-01-15T09:11:14;100717.23;;;0.92;78.36
56070;BME280;41944;52.078;-0.058;2024-01-15T09:13:41;100725.00;;;0.97;78.62
56070;BME280;41944;52.078;-0.058;2024-01-15T09:16:08;100731.41;;;1.03;78.94
56070;BME280;41944;52.078;-0.058;2024-01-15T09:18:35;100740.38;;;1.45;82.51
56070;BME280;41944;52.078;-0.058;2024-01-15T09:21:03;100741.14;;;1.73;79.97
56070;BME280;41944;52.078;-0.058;2024-01-15T09:23:30;100738.04;;;2.03;77.15
56070;BME280;41944;52.078;-0.058;2024-01-15T09:25:57;100740.39;;;2.12;75.82
56070;BME280;41944;52.078;-0.058;2024-01-15T09:28:24;100741.47;;;2.33;75.89
56070;BME280;41944;52.078;-0.058;2024-01-15T09:30:51;100743.08;;;2.43;74.94
56070;BME280;41944;52.078;-0.058;2024-01-15T09:33:18;100741.35;;;2.50;73.17
56070;BME280;41944;52.078;-0.058;2024-01-15T09:35:45;100742.61;;;2.61;74.29
56070;BME280;41944;52.078;-0.058;2024-01-15T09:38:13;100744.70;;;2.80;73.51
56070;BME280;41944;52.078;-0.058;2024-01-15T09:40:43;100751.50;;;2.91;71.64
56070;BME280;41944;52.078;-0.058;2024-01-15T09:43:12;100752.71;;;2.86;72.11
56070;BME280;41944;52.078;-0.058;2024-01-15T09:45:40;100761.40;;;2.80;72.08
56070;BME280;41944;52.078;-0.058;2024-01-15T09:48:07;100768.04;;;2.83;72.00
56070;BME280;41944;52.078;-0.058;2024-01-15T09:50:34;100767.97;;;3.01;71.62
56070;BME280;41944;52.078;-0.058;2024-01-15T09:53:01;100769.53;;;3.13;72.49
56070;BME280;41944;52.078;-0.058;2024-01-15T09:55:29;100769.06;;;3.14;69.38
56070;BME280;41944;52.078;-0.058;2024-01-15T09:57:58;100764.73;;;3.24;71.11
56070;BME280;41944;52.078;-0.058;2024-01-15T10:00:26;100765.37;;;3.49;70.89
56070;BME280;41944;52.078;-0.058;2024-01-15T10:02:54;100769.08;;;3.31;67.55
56070;BME280;41944;52.078;-0.058;2024-01-15T10:05:21;100773.44;;;3.50;69.94
56070;BME280;41944;52.078;-0.058;2024-01-15T10:07:48;100777.61;;;3.77;69.67
56070;BME280;41944;52.078;-0.058;2024-01-15T10:10:16;100782.86;;;3.62;67.98
56070;BME280;41944;52.078;-0.058;2024-01-15T10:12:43;100781.22;;;3.79;69.95
56070;BME280;41944;52.078;-0.058;2024-01-15T10:15:11;100781.03;;;3.85;69.68
56070;BME280;41944;52.078;-0.058;2024-01-15T10:17:39;100786.03;;;4.08;68.89
56070;BME280;41944;52.078;-0.058;2024-01-15T10:20:09;100794.66;;;4.42;67.71
56070;BME280;41944;52.078;-0.058;2024-01-15T10:22:39;100791.64;;;4.57;65.78
56070;BME280;41944;52.078;-0.058;2024-01-15T10:25:10;100797.31;;;4.84;65.82
56070;BME280;41944;52.078;-0.058;2024-01-15T10:27:37;100801.51;;;5.19;63.11
56070;BME280;41944;52.078;-0.058;2024-01-15T10:30:05;100802.90;;;5.28;65.25
56070;BME280;41944;52.078;-0.058;2024-01-15T10:32:32;100803.19;;;5.30;62.40
56070;BME280;41944;52.078;-0.058;2024-01-15T10:34:59;100806.17;;;5.40;62.14
56070;BME280;41944;52.078;-0.058;2024-01-15T10:37:26;100810.29;;;5.39;62.99
56070;BME280;41944;52.078;-0.058;2024-01-15T10:39:53;100814.71;;;5.09;62.31
56070;BME280;41944;52.078;-0.058;2024-01-15T10:42:19;100814.08;;;5.22;62.96
56070;BME280;41944;52.078;-0.058;2024-01-15T10:44:47;100811.56;;;5.22;61.37
56070;BME280;41944;52.078;-0.058;2024-01-15T10:47:14;100809.17;;;5.11;63.26
56070;BME280;41944;52.078;-0.058;2024-01-15T10:49:41;100807.29;;;5.10;62.66
56070;BME280;41944;52.078;-0.058;2024-01-15T10:52:08;100803.91;;;5.02;62.24
56070;BME280;41944;52.078;-0.058;2024-01-15T10:54:36;100809.67;;;5.16;63.18
56070;BME280;41944;52.078;-0.058;2024-01-15T10:57:04;100807.69;;;5.05;62.27
56070;BME280;41944;52.078;-0.058;2024-01-15T10:59:33;100801.79;;;4.87;63.46
56070;BME280;41944;52.078;-0.058;2024-01-15T11:02:00;100802.09;;;4.80;63.15
56070;BME280;41944;52.078;-0.058;2024-01-15T11:04:26;100804.77;;;4.95;61.73
56070;BME280;41944;52.078;-0.058;2024-01-15T11:06:54;100804.81;;;5.03;65.38
56070;BME280;41944;52.078;-0.058;2024-01-15T11:09:23;100800.02;;;4.89;64.27
56070;BME280;41944;52.078;-0.058;2024-01-15T11:11:55;100809.70;;;4.97;63.24
56070;BME280;41944;52.078;-0.058;2024-01-15T11:14:34;100809.78;;;4.94;63.14
56070;BME280;41944;52.078;-0.058;2024-01-15T11:17:01;100807.45;;;4.78;62.46
56070;BME280;41944;52.078;-0.058;2024-01-15T11:19:36;100804.88;;;4.84;62.41
56070;BME280;41944;52.078;-0.058;2024-01-15T11:22:03;100809.21;;;4.86;60.67
56070;BME280;41944;52.078;-0.058;2024-01-15T11:24:34;100808.77;;;4.76;61.67
56070;BME280;41944;52.078;-0.058;2024-01-15T11:27:02;100807.86;;;4.70;62.07
56070;BME280;41944;52.078;-0.058;2024-01-15T11:29:31;100803.35;;;4.57;61.97
56070;BME280;41944;52.078;-0.058;2024-01-15T11:32:01;100795.69;;;4.77;60.94
56070;BME280;41944;52.078;-0.058;2024-01-15T11:35:01;100793.89;;;4.47;59.50
56070;BME280;41944;52.078;-0.058;2024-01-15T11:37:29;100799.22;;;4.31;63.02
56070;BME280;41944;52.078;-0.058;2024-01-15T11:40:36;100804.85;;;4.15;61.71
56070;BME280;41944;52.078;-0.058;2024-01-15T11:43:04;100806.19;;;4.34;62.78
56070;BME280;41944;52.078;-0.058;2024-01-15T11:45:31;100806.70;;;4.48;62.70
56070;BME280;41944;52.078;-0.058;2024-01-15T11:48:10;100802.81;;;4.59;60.97
56070;BME280;41944;52.078;-0.058;2024-01-15T11:50:40;100803.05;;;4.32;59.04
56070;BME280;41944;52.078;-0.058;2024-01-15T11:53:27;100808.67;;;4.37;61.86
56070;BME280;41944;52.078;-0.058;2024-01-15T11:55:59;100809.23;;;4.38;59.55
56070;BME280;41944;52.078;-0.058;2024-01-15T11:58:28;100816.67;;;4.60;64.02
56070;BME280;41944;52.078;-0.058;2024-01-15T12:00:55;100817.52;;;4.61;62.82
56070;BME280;41944;52.078;-0.058;2024-01-15T12:03:22;100815.41;;;4.80;60.53
56070;BME280;41944;52.078;-0.058;2024-01-15T12:05:49;100819.86;;;4.91;62.92
56070;BME280;41944;52.078;-0.058;2024-01-15T12:08:21;100821.51;;;5.03;61.25
56070;BME280;41944;52.078;-0.058;2024-01-15T12:10:48;100821.40;;;5.09;59.07
56070;BME280;41944;52.078;-0.058;2024-01-15T12:13:16;100821.57;;;4.94;59.82
56070;BME280;41944;52.078;-0.058;2024-01-15T12:15:44;100822.71;;;5.11;59.79
56070;BME280;41944;52.078;-0.058;2024-01-15T12:18:13;100824.44;;;5.11;59.96
56070;BME280;41944;52.078;-0.058;2024-01-15T12:20:41;100819.01;;;5.29;60.24
56070;BME280;41944;52.078;-0.058;2024-01-15T12:23:08;100818.91;;;5.13;58.83
56070;BME280;41944;52.078;-0.058;2024-01-15T12:25:35;100823.18;;;5.33;58.38
56070;BME280;41944;52.078;-0.058;2024-01-15T12:28:03;100833.57;;;5.39;58.52
56070;BME280;41944;52.078;-0.058;2024-01-15T12:30:32;100837.55;;;5.47;60.18
56070;BME280;41944;52.078;-0.058;2024-01-15T12:33:01;100838.24;;;5.54;59.88
56070;BME280;41944;52.078;-0.058;2024-01-15T12:35:29;100839.85;;;5.37;59.16
56070;BME280;41944;52.078;-0.058;2024-01-15T12:37:56;100838.69;;;5.48;58.80
56070;BME280;41944;52.078;-0.058;2024-01-15T12:40:23;100840.08;;;5.32;59.94
56070;BME280;41944;52.078;-0.058;2024-01-15T12:42:51;100838.75;;;5.49;57.30
56070;BME280;41944;52.078;-0.058;2024-01-15T12:45:17;100835.48;;;5.56;58.42
56070;BME280;41944;52.078;-0.058;2024-01-15T12:47:44;100843.10;;;5.70;59.38
56070;BME280;41944;52.078;-0.058;2024-01-15T12:50:13;100844.98;;;5.46;57.38